createdAt,value
2019-03-19T00:04:47.684Z,4.11
2019-03-19T00:09:51.913Z,4.24
2019-03-19T00:14:56.146Z,4.09
2019-03-19T00:20:00.410Z,3.98
2019-03-19T00:25:04.914Z,4.01
2019-03-19T00:30:09.959Z,4.13
2019-03-19T00:35:14.222Z,4.00
2019-03-19T00:40:18.472Z,4.00
2019-03-19T00:45:22.744Z,4.10
2019-03-19T00:50:26.979Z,3.95
2019-03-19T00:55:40.314Z,3.92
2019-03-19T01:00:37.210Z,3.73
2019-03-19T01:05:41.443Z,3.85
2019-03-19T01:10:45.669Z,3.75
2019-03-19T01:15:49.946Z,3.62
2019-03-19T01:20:54.364Z,3.57
2019-03-19T01:25:58.801Z,3.50
2019-03-19T01:31:03.241Z,3.53
2019-03-19T01:36:07.478Z,3.60
2019-03-19T01:41:11.724Z,3.59
2019-03-19T01:46:15.951Z,3.67
2019-03-19T01:51:20.201Z,3.74
2019-03-19T01:56:24.448Z,3.74
2019-03-19T02:01:28.683Z,3.71
2019-03-19T02:06:32.914Z,3.82
2019-03-19T02:11:38.384Z,3.76
2019-03-19T02:16:42.880Z,3.75
2019-03-19T02:21:47.133Z,3.80
2019-03-19T02:26:51.359Z,3.82
2019-03-19T02:31:55.630Z,3.53
2019-03-19T02:36:59.874Z,3.66
2019-03-19T02:42:04.108Z,3.69
2019-03-19T02:47:08.357Z,3.66
2019-03-19T02:52:12.591Z,3.58
2019-03-19T02:57:16.838Z,3.52
2019-03-19T03:02:21.067Z,3.47
2019-03-19T03:07:25.305Z,3.35
2019-03-19T03:12:29.536Z,3.36
2019-03-19T03:17:33.793Z,3.45
2019-03-19T03:22:38.084Z,3.32
2019-03-19T03:27:42.410Z,3.31
2019-03-19T03:32:46.666Z,3.25
2019-03-19T03:37:50.877Z,3.24
2019-03-19T03:42:55.112Z,3.29
2019-03-19T03:47:59.335Z,3.30
2019-03-19T03:53:03.587Z,3.34
2019-03-19T03:58:07.803Z,3.33
2019-03-19T04:03:12.037Z,3.23
2019-03-19T04:08:16.266Z,3.36
2019-03-19T04:13:20.495Z,3.43
2019-03-19T04:18:24.891Z,3.41
2019-03-19T04:23:29.228Z,3.40
2019-03-19T04:28:33.473Z,3.48
2019-03-19T04:33:37.853Z,3.46
2019-03-19T04:38:42.085Z,3.25
2019-03-19T04:43:46.315Z,3.38
2019-03-19T04:48:50.659Z,3.38
2019-03-19T04:53:54.878Z,3.42
2019-03-19T04:58:59.103Z,3.34
2019-03-19T05:04:03.337Z,3.37
2019-03-19T05:09:08.626Z,3.58
2019-03-19T05:14:12.850Z,3.47
2019-03-19T05:19:17.090Z,3.55
2019-03-19T05:24:21.323Z,3.42
2019-03-19T05:29:25.562Z,3.40
2019-03-19T05:34:29.995Z,3.51
2019-03-19T05:39:34.268Z,3.54
2019-03-19T05:44:38.534Z,3.59
2019-03-19T05:49:42.797Z,3.58
2019-03-19T05:54:47.526Z,3.61
2019-03-19T05:59:51.815Z,3.74
2019-03-19T06:04:56.047Z,3.63
2019-03-19T06:10:00.344Z,3.44
2019-03-19T06:15:05.270Z,3.72
2019-03-19T06:20:10.725Z,3.72
2019-03-19T06:25:14.950Z,3.73
2019-03-19T06:30:19.315Z,3.87
2019-03-19T06:35:23.559Z,3.88
2019-03-19T06:40:27.794Z,3.94
2019-03-19T06:45:32.029Z,4.10
2019-03-19T06:50:44.667Z,4.20
2019-03-19T06:55:42.204Z,4.39
2019-03-19T07:00:46.440Z,4.22
2019-03-19T07:05:50.691Z,4.03
2019-03-19T07:10:54.982Z,4.01
2019-03-19T07:15:59.186Z,4.06
2019-03-19T07:21:03.420Z,4.32
2019-03-19T07:26:07.692Z,4.35
2019-03-19T07:31:12.074Z,4.49
2019-03-19T07:36:16.326Z,4.67
2019-03-19T07:41:20.553Z,4.83
2019-03-19T07:46:24.840Z,5.19
2019-03-19T07:51:29.088Z,5.09
2019-03-19T07:56:33.314Z,5.31
2019-03-19T08:01:37.534Z,5.47
2019-03-19T08:06:41.770Z,5.56
2019-03-19T08:11:46.010Z,5.38
2019-03-19T08:16:50.225Z,5.48
2019-03-19T08:21:54.460Z,5.12
2019-03-19T08:26:58.688Z,5.43
2019-03-19T08:32:02.913Z,5.68
2019-03-19T08:37:07.176Z,5.79
2019-03-19T08:42:11.398Z,5.76
2019-03-19T08:47:25.324Z,6.08
2019-03-19T08:52:29.573Z,6.08
2019-03-19T08:57:33.807Z,6.44
2019-03-19T09:02:38.171Z,6.14
2019-03-19T09:07:42.408Z,6.25
2019-03-19T09:12:48.472Z,6.30
2019-03-19T09:17:52.627Z,6.51
2019-03-19T09:22:56.874Z,6.62
2019-03-19T09:28:01.085Z,6.59
2019-03-19T09:33:05.534Z,6.52
2019-03-19T09:38:09.821Z,6.47
2019-03-19T09:43:14.053Z,6.06
2019-03-19T09:48:18.291Z,6.27
2019-03-19T09:53:22.512Z,6.49
2019-03-19T09:58:26.748Z,6.34
2019-03-19T10:03:30.994Z,6.70
2019-03-19T10:08:35.216Z,6.64
2019-03-19T10:13:39.463Z,7.58
2019-03-19T10:18:43.745Z,7.60
2019-03-19T10:23:47.968Z,8.23
2019-03-19T10:28:52.204Z,7.42
2019-03-19T10:33:56.439Z,7.44
2019-03-19T10:39:00.687Z,8.56
2019-03-19T10:44:05.266Z,8.10
2019-03-19T10:49:09.526Z,8.05
2019-03-19T10:54:13.771Z,8.29
2019-03-19T10:59:18.146Z,8.45
2019-03-19T11:04:23.198Z,8.13
2019-03-19T11:09:27.382Z,7.68
2019-03-19T11:14:31.791Z,8.65
2019-03-19T11:19:36.135Z,9.70
2019-03-19T11:24:40.456Z,8.92
2019-03-19T11:29:44.811Z,8.85
2019-03-19T11:34:49.053Z,10.47
2019-03-19T11:39:53.392Z,10.55
2019-03-19T11:44:57.728Z,10.32
2019-03-19T11:50:02.073Z,10.02
2019-03-19T11:55:07.711Z,8.95
2019-03-19T12:00:19.450Z,8.06
2019-03-19T12:05:23.677Z,8.40
2019-03-19T12:10:28.015Z,10.42
2019-03-19T12:15:32.321Z,11.68
2019-03-19T12:20:36.553Z,11.87
2019-03-19T12:25:40.904Z,11.58
2019-03-19T12:30:45.128Z,10.12
2019-03-19T12:35:49.376Z,9.38
2019-03-19T12:40:53.598Z,8.80
2019-03-19T12:45:57.840Z,8.93
2019-03-19T12:51:02.167Z,8.58
2019-03-19T12:56:06.410Z,8.51
2019-03-19T13:01:10.723Z,8.99
2019-03-19T13:06:15.159Z,8.69
2019-03-19T13:11:19.409Z,8.11
2019-03-19T13:16:23.648Z,8.30
2019-03-19T13:21:28.055Z,8.33
2019-03-19T13:26:32.308Z,8.46
2019-03-19T13:31:36.574Z,10.33
2019-03-19T13:36:40.768Z,11.20
2019-03-19T13:41:45.036Z,11.60
2019-03-19T13:46:49.270Z,11.48
2019-03-19T13:51:53.506Z,9.90
2019-03-19T13:56:57.735Z,8.52
2019-03-19T14:02:01.969Z,8.74
2019-03-19T14:07:06.309Z,8.63
2019-03-19T14:12:10.601Z,8.82
2019-03-19T14:17:14.842Z,9.13
2019-03-19T14:22:19.080Z,10.25
2019-03-19T14:27:23.311Z,9.76
2019-03-19T14:32:28.539Z,9.30
2019-03-19T14:37:32.773Z,9.00
2019-03-19T14:42:36.993Z,8.25
2019-03-19T14:47:41.332Z,8.57
2019-03-19T14:52:45.598Z,8.40
2019-03-19T14:57:51.057Z,8.32
2019-03-19T15:02:55.461Z,8.38
2019-03-19T15:07:59.657Z,8.66
2019-03-19T15:13:03.908Z,8.79
2019-03-19T15:18:08.150Z,8.55
2019-03-19T15:23:12.383Z,8.19
2019-03-19T15:28:16.615Z,8.22
2019-03-19T15:33:20.977Z,8.14
2019-03-19T15:38:25.216Z,8.52
2019-03-19T15:43:29.450Z,8.30
2019-03-19T15:48:33.694Z,8.23
2019-03-19T15:53:37.939Z,8.41
2019-03-19T15:58:42.169Z,8.66
2019-03-19T16:03:46.391Z,8.65
2019-03-19T16:08:50.636Z,8.10
2019-03-19T16:13:54.877Z,8.23
2019-03-19T16:18:59.110Z,8.20
2019-03-19T16:24:03.342Z,7.99
2019-03-19T16:29:07.574Z,7.90
2019-03-19T16:34:11.815Z,8.14
2019-03-19T16:39:16.061Z,7.86
2019-03-19T16:44:20.293Z,7.82
2019-03-19T16:49:24.528Z,7.89
2019-03-19T16:54:28.755Z,7.68
2019-03-19T16:59:33.004Z,7.57
2019-03-19T17:04:37.258Z,7.37
2019-03-19T17:09:41.493Z,7.34
2019-03-19T17:14:45.734Z,7.29
2019-03-19T17:19:49.986Z,7.28
2019-03-19T17:24:54.216Z,7.21
2019-03-19T17:29:58.688Z,7.18
2019-03-19T17:35:02.989Z,7.08
2019-03-19T17:40:08.144Z,7.05
2019-03-19T17:45:12.770Z,7.06
2019-03-19T17:50:18.597Z,7.06
2019-03-19T17:55:22.993Z,6.99
2019-03-19T18:00:28.689Z,6.88
2019-03-19T18:05:32.983Z,6.91
2019-03-19T18:10:37.245Z,6.87
2019-03-19T18:15:41.458Z,6.80
2019-03-19T18:20:45.794Z,6.70
2019-03-19T18:25:50.368Z,6.66
2019-03-19T18:30:54.612Z,6.58
2019-03-19T18:35:58.875Z,6.50
2019-03-19T18:41:03.220Z,6.49
2019-03-19T18:46:07.467Z,6.48
2019-03-19T18:51:11.749Z,6.45
2019-03-19T18:56:15.989Z,6.32
2019-03-19T19:01:20.241Z,6.38
2019-03-19T19:06:24.479Z,6.27
2019-03-19T19:11:28.724Z,6.25
2019-03-19T19:16:33.288Z,6.30
2019-03-19T19:21:37.593Z,6.20
2019-03-19T19:26:41.896Z,6.15
2019-03-19T19:31:46.331Z,6.12
2019-03-19T19:36:51.140Z,6.13
2019-03-19T19:41:55.559Z,6.10
2019-03-19T19:47:00.007Z,6.02
2019-03-19T19:52:04.518Z,5.99
2019-03-19T19:57:08.858Z,5.97
2019-03-19T20:02:13.116Z,5.91
2019-03-19T20:07:17.383Z,5.82
2019-03-19T20:12:25.248Z,5.89
2019-03-19T20:17:29.777Z,5.87
2019-03-19T20:22:34.695Z,5.79
2019-03-19T20:27:39.113Z,5.81
2019-03-19T20:32:43.568Z,5.82
2019-03-19T20:37:47.963Z,5.79
2019-03-19T20:42:52.250Z,5.81
2019-03-19T20:47:56.504Z,5.78
2019-03-19T20:53:00.878Z,5.73
2019-03-19T20:58:05.369Z,5.70
2019-03-19T21:03:09.600Z,5.59
2019-03-19T21:08:13.849Z,5.60
2019-03-19T21:13:18.087Z,5.52
2019-03-19T21:18:22.335Z,5.55
2019-03-19T21:23:26.589Z,5.50
2019-03-19T21:28:30.837Z,5.44
2019-03-19T21:33:35.070Z,5.50
2019-03-19T21:38:39.450Z,5.40
2019-03-19T21:43:43.498Z,5.38
2019-03-19T21:48:47.734Z,5.32
2019-03-19T21:53:52.166Z,5.29
2019-03-19T21:58:56.439Z,5.07
2019-03-19T22:04:03.329Z,5.05
2019-03-19T22:09:07.861Z,4.93
2019-03-19T22:14:12.085Z,4.95
2019-03-19T22:19:16.319Z,4.90
2019-03-19T22:24:20.561Z,4.89
2019-03-19T22:29:24.788Z,4.84
2019-03-19T22:34:29.044Z,4.86
2019-03-19T22:39:33.318Z,4.73
2019-03-19T22:44:37.562Z,4.75
2019-03-19T22:49:41.794Z,4.74
2019-03-19T22:54:46.243Z,4.66
2019-03-19T22:59:50.482Z,4.69
2019-03-19T23:04:54.707Z,4.63
2019-03-19T23:09:58.935Z,4.53
2019-03-19T23:15:03.228Z,4.38
2019-03-19T23:20:07.908Z,4.21
2019-03-19T23:25:12.292Z,4.25
2019-03-19T23:30:16.561Z,4.23
2019-03-19T23:35:20.799Z,4.24
2019-03-19T23:40:25.069Z,4.28
2019-03-19T23:45:29.295Z,4.31
2019-03-19T23:50:33.564Z,4.30
2019-03-19T23:55:37.841Z,4.21
